sensor_id;sensor_type;location;lat;lon;timestamp;P1;durP1;ratioP1;P2;durP2;ratioP2
17814;SDS011;9031;50.974;11.330;2023-11-19T00:01:08;0.77;;;0.70;;
17814;SDS011;9031;50.974;11.330;2023-11-19T00:03:33;0.60;;;0.60;;
17814;SDS011;9031;50.974;11.330;2023-11-19T00:06:00;0.67;;;0.60;;
17814;SDS011;9031;50.974;11.330;2023-11-19T00:08:26;0.70;;;0.70;;
17814;SDS011;9031;50.974;11.330;2023-11-19T00:10:52;0.70;;;0.70;;
17814;SDS011;9031;50.974;11.330;2023-11-19T00:13:17;0.50;;;0.50;;
17814;SDS011;9031;50.974;11.330;2023-11-19T00:15:43;0.40;;;0.40;;
17814;SDS011;9031;50.974;11.330;2023-11-19T00:18:10;0.50;;;0.50;;
17814;SDS011;9031;50.974;11.330;2023-11-19T00:20:35;0.60;;;0.60;;
17814;SDS011;9031;50.974;11.330;2023-11-19T00:23:01;0.53;;;0.53;;
17814;SDS011;9031;50.974;11.330;2023-11-19T00:25:27;0.50;;;0.50;;
17814;SDS011;9031;50.974;11.330;2023-11-19T00:27:53;0.83;;;0.83;;
17814;SDS011;9031;50.974;11.330;2023-11-19T00:30:18;0.50;;;0.50;;
17814;SDS011;9031;50.974;11.330;2023-11-19T00:32:44;0.50;;;0.50;;
17814;SDS011;9031;50.974;11.330;2023-11-19T00:35:10;0.40;;;0.40;;
17814;SDS011;9031;50.974;11.330;2023-11-19T00:37:36;0.40;;;0.40;;
17814;SDS011;9031;50.974;11.330;2023-11-19T00:40:02;1.00;;;0.53;;
17814;SDS011;9031;50.974;11.330;2023-11-19T00:42:30;0.50;;;0.50;;
17814;SDS011;9031;50.974;11.330;2023-11-19T00:44:56;0.40;;;0.40;;
17814;SDS011;9031;50.974;11.330;2023-11-19T00:47:21;0.50;;;0.50;;
17814;SDS011;9031;50.974;11.330;2023-11-19T00:49:47;0.40;;;0.40;;
17814;SDS011;9031;50.974;11.330;2023-11-19T00:52:16;0.50;;;0.50;;
17814;SDS011;9031;50.974;11.330;2023-11-19T00:54:42;0.50;;;0.50;;
17814;SDS011;9031;50.974;11.330;2023-11-19T00:57:08;0.50;;;0.50;;
17814;SDS011;9031;50.974;11.330;2023-11-19T00:59:33;0.57;;;0.57;;
17814;SDS011;9031;50.974;11.330;2023-11-19T01:01:59;0.47;;;0.47;;
17814;SDS011;9031;50.974;11.330;2023-11-19T01:04:28;0.50;;;0.50;;
17814;SDS011;9031;50.974;11.330;2023-11-19T01:06:54;0.50;;;0.50;;
17814;SDS011;9031;50.974;11.330;2023-11-19T01:09:20;0.83;;;0.57;;
17814;SDS011;9031;50.974;11.330;2023-11-19T01:11:45;0.40;;;0.40;;
17814;SDS011;9031;50.974;11.330;2023-11-19T01:14:11;0.60;;;0.60;;
17814;SDS011;9031;50.974;11.330;2023-11-19T01:16:36;0.87;;;0.70;;
17814;SDS011;9031;50.974;11.330;2023-11-19T01:19:02;0.50;;;0.50;;
17814;SDS011;9031;50.974;11.330;2023-11-19T01:21:30;1.67;;;0.60;;
17814;SDS011;9031;50.974;11.330;2023-11-19T01:23:56;0.70;;;0.70;;
17814;SDS011;9031;50.974;11.330;2023-11-19T01:26:23;0.50;;;0.47;;
17814;SDS011;9031;50.974;11.330;2023-11-19T01:28:48;0.40;;;0.40;;
17814;SDS011;9031;50.974;11.330;2023-11-19T01:31:17;2.47;;;0.50;;
17814;SDS011;9031;50.974;11.330;2023-11-19T01:33:42;0.50;;;0.50;;
17814;SDS011;9031;50.974;11.330;2023-11-19T01:36:08;0.43;;;0.43;;
17814;SDS011;9031;50.974;11.330;2023-11-19T01:38:34;0.77;;;0.50;;
17814;SDS011;9031;50.974;11.330;2023-11-19T01:41:01;0.47;;;0.47;;
17814;SDS011;9031;50.974;11.330;2023-11-19T01:43:32;0.50;;;0.50;;
17814;SDS011;9031;50.974;11.330;2023-11-19T01:45:58;0.47;;;0.47;;
17814;SDS011;9031;50.974;11.330;2023-11-19T01:48:23;0.40;;;0.40;;
17814;SDS011;9031;50.974;11.330;2023-11-19T01:50:49;0.43;;;0.43;;
17814;SDS011;9031;50.974;11.330;2023-11-19T01:53:17;0.43;;;0.43;;
17814;SDS011;9031;50.974;11.330;2023-11-19T01:55:43;0.80;;;0.60;;
17814;SDS011;9031;50.974;11.330;2023-11-19T01:58:08;0.50;;;0.50;;
17814;SDS011;9031;50.974;11.330;2023-11-19T02:00:34;0.40;;;0.40;;
17814;SDS011;9031;50.974;11.330;2023-11-19T02:03:00;0.47;;;0.47;;
17814;SDS011;9031;50.974;11.330;2023-11-19T02:05:25;0.40;;;0.40;;
17814;SDS011;9031;50.974;11.330;2023-11-19T02:07:51;1.70;;;0.40;;
17814;SDS011;9031;50.974;11.330;2023-11-19T02:10:17;0.50;;;0.50;;
17814;SDS011;9031;50.974;11.330;2023-11-19T02:12:44;0.50;;;0.50;;
17814;SDS011;9031;50.974;11.330;2023-11-19T02:15:10;0.60;;;0.50;;
17814;SDS011;9031;50.974;11.330;2023-11-19T02:17:36;0.47;;;0.47;;
17814;SDS011;9031;50.974;11.330;2023-11-19T02:20:05;0.50;;;0.50;;
17814;SDS011;9031;50.974;11.330;2023-11-19T02:22:33;0.40;;;0.40;;
17814;SDS011;9031;50.974;11.330;2023-11-19T02:25:00;0.60;;;0.60;;
17814;SDS011;9031;50.974;11.330;2023-11-19T02:30:24;0.50;;;0.50;;
17814;SDS011;9031;50.974;11.330;2023-11-19T02:32:54;0.50;;;0.50;;
17814;SDS011;9031;50.974;11.330;2023-11-19T02:35:24;0.70;;;0.50;;
17814;SDS011;9031;50.974;11.330;2023-11-19T02:37:51;0.50;;;0.50;;
17814;SDS011;9031;50.974;11.330;2023-11-19T02:40:16;0.40;;;0.40;;
17814;SDS011;9031;50.974;11.330;2023-11-19T02:42:42;0.40;;;0.40;;
17814;SDS011;9031;50.974;11.330;2023-11-19T02:45:08;0.40;;;0.40;;
17814;SDS011;9031;50.974;11.330;2023-11-19T02:47:39;1.90;;;0.50;;
17814;SDS011;9031;50.974;11.330;2023-11-19T02:50:08;0.50;;;0.50;;
17814;SDS011;9031;50.974;11.330;2023-11-19T02:52:42;0.37;;;0.37;;
17814;SDS011;9031;50.974;11.330;2023-11-19T02:55:10;0.47;;;0.47;;
17814;SDS011;9031;50.974;11.330;2023-11-19T02:57:37;0.60;;;0.60;;
17814;SDS011;9031;50.974;11.330;2023-11-19T03:00:16;0.40;;;0.40;;
17814;SDS011;9031;50.974;11.330;2023-11-19T03:02:43;0.50;;;0.50;;
17814;SDS011;9031;50.974;11.330;2023-11-19T03:05:14;0.40;;;0.40;;
17814;SDS011;9031;50.974;11.330;2023-11-19T03:07:41;0.53;;;0.50;;
17814;SDS011;9031;50.974;11.330;2023-11-19T03:10:08;0.40;;;0.40;;
17814;SDS011;9031;50.974;11.330;2023-11-19T03:12:39;0.40;;;0.40;;
17814;SDS011;9031;50.974;11.330;2023-11-19T03:15:08;0.47;;;0.47;;
17814;SDS011;9031;50.974;11.330;2023-11-19T03:17:35;0.33;;;0.33;;
17814;SDS011;9031;50.974;11.330;2023-11-19T03:20:02;0.50;;;0.47;;
17814;SDS011;9031;50.974;11.330;2023-11-19T03:22:31;0.37;;;0.37;;
17814;SDS011;9031;50.974;11.330;2023-11-19T03:24:59;0.40;;;0.40;;
17814;SDS011;9031;50.974;11.330;2023-11-19T03:27:24;0.40;;;0.40;;
17814;SDS011;9031;50.974;11.330;2023-11-19T03:29:50;0.40;;;0.40;;
17814;SDS011;9031;50.974;11.330;2023-11-19T03:32:15;0.50;;;0.50;;
17814;SDS011;9031;50.974;11.330;2023-11-19T03:34:41;0.30;;;0.30;;
17814;SDS011;9031;50.974;11.330;2023-11-19T03:37:06;0.40;;;0.40;;
17814;SDS011;9031;50.974;11.330;2023-11-19T03:39:32;0.30;;;0.30;;
17814;SDS011;9031;50.974;11.330;2023-11-19T03:41:58;0.30;;;0.30;;
17814;SDS011;9031;50.974;11.330;2023-11-19T03:44:23;0.33;;;0.33;;
17814;SDS011;9031;50.974;11.330;2023-11-19T03:46:51;0.20;;;0.20;;
17814;SDS011;9031;50.974;11.330;2023-11-19T03:49:17;0.30;;;0.30;;
17814;SDS011;9031;50.974;11.330;2023-11-19T03:51:42;0.30;;;0.30;;
17814;SDS011;9031;50.974;11.330;2023-11-19T03:54:08;0.30;;;0.30;;
17814;SDS011;9031;50.974;11.330;2023-11-19T03:56:33;0.20;;;0.20;;
17814;SDS011;9031;50.974;11.330;2023-11-19T03:58:59;0.70;;;0.33;;
17814;SDS011;9031;50.974;11.330;2023-11-19T04:01:24;0.30;;;0.30;;
17814;SDS011;9031;50.974;11.330;2023-11-19T04:03:50;0.20;;;0.20;;
17814;SDS011;9031;50.974;11.330;2023-11-19T04:06:15;0.37;;;0.37;;
17814;SDS011;9031;50.974;11.330;2023-11-19T04:08:41;0.40;;;0.40;;
17814;SDS011;9031;50.974;11.330;2023-11-19T04:11:06;0.30;;;0.30;;
17814;SDS011;9031;50.974;11.330;2023-11-19T04:13:33;0.40;;;0.40;;
17814;SDS011;9031;50.974;11.330;2023-11-19T04:15:59;0.30;;;0.30;;
17814;SDS011;9031;50.974;11.330;2023-11-19T04:18:25;0.30;;;0.30;;
17814;SDS011;9031;50.974;11.330;2023-11-19T04:20:50;0.23;;;0.23;;
17814;SDS011;9031;50.974;11.330;2023-11-19T04:23:16;0.83;;;0.20;;
17814;SDS011;9031;50.974;11.330;2023-11-19T04:25:42;0.37;;;0.30;;
17814;SDS011;9031;50.974;11.330;2023-11-19T04:28:07;0.20;;;0.20;;
17814;SDS011;9031;50.974;11.330;2023-11-19T04:30:33;0.30;;;0.30;;
17814;SDS011;9031;50.974;11.330;2023-11-19T04:32:59;1.20;;;0.33;;
17814;SDS011;9031;50.974;11.330;2023-11-19T04:35:24;0.30;;;0.30;;
17814;SDS011;9031;50.974;11.330;2023-11-19T04:37:51;0.20;;;0.20;;
17814;SDS011;9031;50.974;11.330;2023-11-19T04:40:16;0.30;;;0.30;;
17814;SDS011;9031;50.974;11.330;2023-11-19T04:42:43;0.40;;;0.40;;
17814;SDS011;9031;50.974;11.330;2023-11-19T04:45:09;0.30;;;0.30;;
17814;SDS011;9031;50.974;11.330;2023-11-19T04:47:35;0.53;;;0.30;;
17814;SDS011;9031;50.974;11.330;2023-11-19T04:50:01;0.33;;;0.33;;
17814;SDS011;9031;50.974;11.330;2023-11-19T04:52:27;0.20;;;0.20;;
17814;SDS011;9031;50.974;11.330;2023-11-19T04:54:53;0.30;;;0.30;;
17814;SDS011;9031;50.974;11.330;2023-11-19T04:57:18;0.57;;;0.20;;
17814;SDS011;9031;50.974;11.330;2023-11-19T04:59:44;0.40;;;0.40;;
17814;SDS011;9031;50.974;11.330;2023-11-19T05:02:10;0.30;;;0.30;;
17814;SDS011;9031;50.974;11.330;2023-11-19T05:04:36;0.20;;;0.20;;
17814;SDS011;9031;50.974;11.330;2023-11-19T05:07:02;0.40;;;0.33;;
17814;SDS011;9031;50.974;11.330;2023-11-19T05:09:28;0.30;;;0.30;;
17814;SDS011;9031;50.974;11.330;2023-11-19T05:11:53;0.23;;;0.23;;
17814;SDS011;9031;50.974;11.330;2023-11-19T05:14:19;0.30;;;0.30;;
17814;SDS011;9031;50.974;11.330;2023-11-19T05:16:46;0.30;;;0.30;;
17814;SDS011;9031;50.974;11.330;2023-11-19T05:19:12;0.40;;;0.40;;
17814;SDS011;9031;50.974;11.330;2023-11-19T05:21:37;0.30;;;0.30;;
17814;SDS011;9031;50.974;11.330;2023-11-19T05:24:03;0.30;;;0.30;;
17814;SDS011;9031;50.974;11.330;2023-11-19T05:26:29;0.30;;;0.30;;
17814;SDS011;9031;50.974;11.330;2023-11-19T05:28:55;0.23;;;0.23;;
17814;SDS011;9031;50.974;11.330;2023-11-19T05:31:21;0.40;;;0.30;;
17814;SDS011;9031;50.974;11.330;2023-11-19T05:33:47;0.20;;;0.20;;
17814;SDS011;9031;50.974;11.330;2023-11-19T05:36:12;0.30;;;0.30;;
17814;SDS011;9031;50.974;11.330;2023-11-19T05:38:38;0.27;;;0.27;;
17814;SDS011;9031;50.974;11.330;2023-11-19T05:41:04;0.30;;;0.30;;
17814;SDS011;9031;50.974;11.330;2023-11-19T05:43:30;1.50;;;0.40;;
17814;SDS011;9031;50.974;11.330;2023-11-19T05:45:56;0.30;;;0.30;;
17814;SDS011;9031;50.974;11.330;2023-11-19T05:48:21;0.30;;;0.30;;
17814;SDS011;9031;50.974;11.330;2023-11-19T05:50:47;0.20;;;0.20;;
17814;SDS011;9031;50.974;11.330;2023-11-19T05:53:15;0.43;;;0.40;;
17814;SDS011;9031;50.974;11.330;2023-11-19T05:55:40;0.20;;;0.20;;
17814;SDS011;9031;50.974;11.330;2023-11-19T05:58:13;0.30;;;0.30;;
17814;SDS011;9031;50.974;11.330;2023-11-19T06:00:39;0.20;;;0.20;;
17814;SDS011;9031;50.974;11.330;2023-11-19T06:03:05;0.67;;;0.37;;
17814;SDS011;9031;50.974;11.330;2023-11-19T06:05:32;0.53;;;0.40;;
17814;SDS011;9031;50.974;11.330;2023-11-19T06:07:57;0.30;;;0.30;;
17814;SDS011;9031;50.974;11.330;2023-11-19T06:10:23;0.43;;;0.43;;
17814;SDS011;9031;50.974;11.330;2023-11-19T06:12:55;0.30;;;0.30;;
17814;SDS011;9031;50.974;11.330;2023-11-19T06:15:24;0.40;;;0.40;;
17814;SDS011;9031;50.974;11.330;2023-11-19T06:17:51;0.20;;;0.20;;
17814;SDS011;9031;50.974;11.330;2023-11-19T06:20:16;0.87;;;0.40;;
17814;SDS011;9031;50.974;11.330;2023-11-19T06:22:44;0.40;;;0.33;;
17814;SDS011;9031;50.974;11.330;2023-11-19T06:25:10;0.97;;;0.40;;
17814;SDS011;9031;50.974;11.330;2023-11-19T06:27:36;0.30;;;0.30;;
17814;SDS011;9031;50.974;11.330;2023-11-19T06:30:02;0.40;;;0.40;;
17814;SDS011;9031;50.974;11.330;2023-11-19T06:32:27;0.30;;;0.30;;
17814;SDS011;9031;50.974;11.330;2023-11-19T06:34:53;0.33;;;0.33;;
17814;SDS011;9031;50.974;11.330;2023-11-19T06:37:19;0.40;;;0.40;;
17814;SDS011;9031;50.974;11.330;2023-11-19T06:39:45;0.30;;;0.30;;
17814;SDS011;9031;50.974;11.330;2023-11-19T06:42:10;0.70;;;0.43;;
17814;SDS011;9031;50.974;11.330;2023-11-19T06:44:36;0.50;;;0.50;;
17814;SDS011;9031;50.974;11.330;2023-11-19T06:47:02;1.17;;;0.50;;
17814;SDS011;9031;50.974;11.330;2023-11-19T06:49:27;1.03;;;0.53;;
17814;SDS011;9031;50.974;11.330;2023-11-19T06:51:53;1.23;;;0.43;;
17814;SDS011;9031;50.974;11.330;2023-11-19T06:54:18;0.30;;;0.30;;
17814;SDS011;9031;50.974;11.330;2023-11-19T06:56:44;0.80;;;0.50;;
17814;SDS011;9031;50.974;11.330;2023-11-19T06:59:09;0.50;;;0.50;;
17814;SDS011;9031;50.974;11.330;2023-11-19T07:01:35;0.77;;;0.67;;
17814;SDS011;9031;50.974;11.330;2023-11-19T07:04:01;0.50;;;0.50;;
17814;SDS011;9031;50.974;11.330;2023-11-19T07:06:33;0.67;;;0.30;;
17814;SDS011;9031;50.974;11.330;2023-11-19T07:08:59;1.23;;;0.30;;
17814;SDS011;9031;50.974;11.330;2023-11-19T07:11:34;0.87;;;0.50;;
17814;SDS011;9031;50.974;11.330;2023-11-19T07:14:09;1.10;;;0.60;;
17814;SDS011;9031;50.974;11.330;2023-11-19T07:16:36;0.80;;;0.40;;
17814;SDS011;9031;50.974;11.330;2023-11-19T07:19:05;1.30;;;0.40;;
17814;SDS011;9031;50.974;11.330;2023-11-19T07:21:31;3.13;;;0.50;;
17814;SDS011;9031;50.974;11.330;2023-11-19T07:23:58;1.70;;;0.50;;
17814;SDS011;9031;50.974;11.330;2023-11-19T07:26:24;0.70;;;0.50;;
17814;SDS011;9031;50.974;11.330;2023-11-19T07:28:50;2.20;;;0.60;;
17814;SDS011;9031;50.974;11.330;2023-11-19T07:31:15;1.70;;;0.40;;
17814;SDS011;9031;50.974;11.330;2023-11-19T07:33:41;1.47;;;0.50;;
17814;SDS011;9031;50.974;11.330;2023-11-19T07:36:08;3.40;;;0.73;;
17814;SDS011;9031;50.974;11.330;2023-11-19T07:38:34;2.00;;;0.50;;
17814;SDS011;9031;50.974;11.330;2023-11-19T07:40:59;5.03;;;1.60;;
17814;SDS011;9031;50.974;11.330;2023-11-19T07:43:25;2.30;;;0.60;;
17814;SDS011;9031;50.974;11.330;2023-11-19T07:45:51;0.60;;;0.53;;
17814;SDS011;9031;50.974;11.330;2023-11-19T07:48:17;3.43;;;0.70;;
17814;SDS011;9031;50.974;11.330;2023-11-19T07:50:47;1.30;;;0.70;;
17814;SDS011;9031;50.974;11.330;2023-11-19T07:53:15;2.77;;;1.00;;
17814;SDS011;9031;50.974;11.330;2023-11-19T07:55:44;1.67;;;0.60;;
17814;SDS011;9031;50.974;11.330;2023-11-19T07:58:12;2.00;;;0.70;;
17814;SDS011;9031;50.974;11.330;2023-11-19T08:00:38;4.83;;;0.80;;
17814;SDS011;9031;50.974;11.330;2023-11-19T08:03:05;1.80;;;0.50;;
17814;SDS011;9031;50.974;11.330;2023-11-19T08:05:31;3.70;;;0.70;;
17814;SDS011;9031;50.974;11.330;2023-11-19T08:07:56;2.73;;;0.60;;
17814;SDS011;9031;50.974;11.330;2023-11-19T08:10:23;0.97;;;0.40;;
17814;SDS011;9031;50.974;11.330;2023-11-19T08:12:48;2.43;;;0.50;;
17814;SDS011;9031;50.974;11.330;2023-11-19T08:15:14;3.20;;;0.73;;
17814;SDS011;9031;50.974;11.330;2023-11-19T08:17:41;1.93;;;0.50;;
17814;SDS011;9031;50.974;11.330;2023-11-19T08:20:07;2.80;;;0.70;;
17814;SDS011;9031;50.974;11.330;2023-11-19T08:22:35;0.73;;;0.63;;
17814;SDS011;9031;50.974;11.330;2023-11-19T08:25:02;0.87;;;0.47;;
17814;SDS011;9031;50.974;11.330;2023-11-19T08:27:31;1.30;;;0.57;;
17814;SDS011;9031;50.974;11.330;2023-11-19T08:29:57;1.47;;;0.70;;
17814;SDS011;9031;50.974;11.330;2023-11-19T08:32:23;0.77;;;0.50;;
17814;SDS011;9031;50.974;11.330;2023-11-19T08:34:49;1.53;;;0.60;;
17814;SDS011;9031;50.974;11.330;2023-11-19T08:37:15;3.53;;;0.70;;
17814;SDS011;9031;50.974;11.330;2023-11-19T08:39:43;2.07;;;0.50;;
17814;SDS011;9031;50.974;11.330;2023-11-19T08:42:08;0.70;;;0.47;;
17814;SDS011;9031;50.974;11.330;2023-11-19T08:44:34;1.80;;;0.60;;
17814;SDS011;9031;50.974;11.330;2023-11-19T08:46:59;0.50;;;0.50;;
17814;SDS011;9031;50.974;11.330;2023-11-19T08:49:25;1.47;;;0.50;;
17814;SDS011;9031;50.974;11.330;2023-11-19T08:51:50;2.80;;;0.50;;
17814;SDS011;9031;50.974;11.330;2023-11-19T08:54:16;1.70;;;0.53;;
17814;SDS011;9031;50.974;11.330;2023-11-19T08:56:42;1.37;;;0.57;;
17814;SDS011;9031;50.974;11.330;2023-11-19T08:59:07;2.80;;;0.70;;
17814;SDS011;9031;50.974;11.330;2023-11-19T09:01:33;2.20;;;0.80;;
17814;SDS011;9031;50.974;11.330;2023-11-19T09:03:59;1.93;;;0.77;;
17814;SDS011;9031;50.974;11.330;2023-11-19T09:06:24;2.80;;;0.83;;
17814;SDS011;9031;50.974;11.330;2023-11-19T09:08:50;2.87;;;0.60;;
17814;SDS011;9031;50.974;11.330;2023-11-19T09:11:16;4.27;;;0.80;;
17814;SDS011;9031;50.974;11.330;2023-11-19T09:13:42;3.73;;;1.07;;
17814;SDS011;9031;50.974;11.330;2023-11-19T09:16:07;3.80;;;0.90;;
17814;SDS011;9031;50.974;11.330;2023-11-19T09:18:33;1.90;;;0.90;;
17814;SDS011;9031;50.974;11.330;2023-11-19T09:21:00;3.37;;;0.90;;
17814;SDS011;9031;50.974;11.330;2023-11-19T09:23:25;2.17;;;0.80;;
17814;SDS011;9031;50.974;11.330;2023-11-19T09:25:52;5.13;;;1.00;;
17814;SDS011;9031;50.974;11.330;2023-11-19T09:28:18;2.80;;;1.00;;
17814;SDS011;9031;50.974;11.330;2023-11-19T09:30:44;6.47;;;1.10;;
17814;SDS011;9031;50.974;11.330;2023-11-19T09:33:09;4.60;;;1.20;;
17814;SDS011;9031;50.974;11.330;2023-11-19T09:35:35;6.03;;;1.10;;
17814;SDS011;9031;50.974;11.330;2023-11-19T09:38:01;2.90;;;0.90;;
17814;SDS011;9031;50.974;11.330;2023-11-19T09:40:27;3.23;;;0.97;;
17814;SDS011;9031;50.974;11.330;2023-11-19T09:42:53;6.53;;;1.63;;
17814;SDS011;9031;50.974;11.330;2023-11-19T09:45:20;4.87;;;1.00;;
17814;SDS011;9031;50.974;11.330;2023-11-19T09:47:46;6.37;;;1.10;;
17814;SDS011;9031;50.974;11.330;2023-11-19T09:50:14;5.10;;;1.10;;
17814;SDS011;9031;50.974;11.330;2023-11-19T09:52:44;5.40;;;1.27;;
17814;SDS011;9031;50.974;11.330;2023-11-19T09:55:11;5.77;;;1.30;;
17814;SDS011;9031;50.974;11.330;2023-11-19T09:57:40;6.90;;;1.27;;
17814;SDS011;9031;50.974;11.330;2023-11-19T10:00:09;9.07;;;1.30;;
17814;SDS011;9031;50.974;11.330;2023-11-19T10:02:36;6.30;;;1.30;;
17814;SDS011;9031;50.974;11.330;2023-11-19T10:05:03;4.47;;;1.40;;
17814;SDS011;9031;50.974;11.330;2023-11-19T10:07:31;8.17;;;1.80;;
17814;SDS011;9031;50.974;11.330;2023-11-19T10:10:00;6.27;;;1.37;;
17814;SDS011;9031;50.974;11.330;2023-11-19T10:12:27;8.70;;;1.60;;
17814;SDS011;9031;50.974;11.330;2023-11-19T10:14:54;7.30;;;1.60;;
17814;SDS011;9031;50.974;11.330;2023-11-19T10:17:22;6.07;;;1.07;;
17814;SDS011;9031;50.974;11.330;2023-11-19T10:19:54;4.93;;;1.23;;
17814;SDS011;9031;50.974;11.330;2023-11-19T10:22:19;5.70;;;1.27;;
17814;SDS011;9031;50.974;11.330;2023-11-19T10:24:45;5.13;;;1.13;;
17814;SDS011;9031;50.974;11.330;2023-11-19T10:27:10;9.40;;;1.33;;
17814;SDS011;9031;50.974;11.330;2023-11-19T10:29:36;6.20;;;1.20;;
17814;SDS011;9031;50.974;11.330;2023-11-19T10:32:03;6.93;;;1.30;;
17814;SDS011;9031;50.974;11.330;2023-11-19T10:34:29;4.60;;;1.10;;
17814;SDS011;9031;50.974;11.330;2023-11-19T10:36:55;4.37;;;1.40;;
17814;SDS011;9031;50.974;11.330;2023-11-19T10:39:20;6.60;;;1.50;;
17814;SDS011;9031;50.974;11.330;2023-11-19T10:41:48;4.70;;;1.20;;
17814;SDS011;9031;50.974;11.330;2023-11-19T10:44:30;6.23;;;1.20;;
17814;SDS011;9031;50.974;11.330;2023-11-19T10:47:00;10.27;;;1.53;;
17814;SDS011;9031;50.974;11.330;2023-11-19T10:49:26;5.17;;;1.40;;
17814;SDS011;9031;50.974;11.330;2023-11-19T10:51:52;4.73;;;1.10;;
17814;SDS011;9031;50.974;11.330;2023-11-19T10:54:21;5.77;;;1.07;;
17814;SDS011;9031;50.974;11.330;2023-11-19T10:56:49;5.47;;;1.10;;
17814;SDS011;9031;50.974;11.330;2023-11-19T10:59:19;6.10;;;1.27;;
17814;SDS011;9031;50.974;11.330;2023-11-19T11:01:47;5.60;;;1.40;;
17814;SDS011;9031;50.974;11.330;2023-11-19T11:04:16;6.63;;;1.60;;
17814;SDS011;9031;50.974;11.330;2023-11-19T11:06:47;8.77;;;1.47;;
17814;SDS011;9031;50.974;11.330;2023-11-19T11:09:13;5.17;;;1.20;;
17814;SDS011;9031;50.974;11.330;2023-11-19T11:11:40;5.20;;;1.10;;
17814;SDS011;9031;50.974;11.330;2023-11-19T11:14:09;6.03;;;1.47;;
17814;SDS011;9031;50.974;11.330;2023-11-19T11:16:37;4.63;;;1.30;;
17814;SDS011;9031;50.974;11.330;2023-11-19T11:19:11;5.73;;;1.50;;
17814;SDS011;9031;50.974;11.330;2023-11-19T11:21:37;7.90;;;1.30;;
17814;SDS011;9031;50.974;11.330;2023-11-19T11:24:21;5.23;;;1.03;;
17814;SDS011;9031;50.974;11.330;2023-11-19T11:27:02;7.50;;;1.20;;
17814;SDS011;9031;50.974;11.330;2023-11-19T11:29:41;3.30;;;1.10;;
17814;SDS011;9031;50.974;11.330;2023-11-19T11:37:44;8.37;;;1.50;;
17814;SDS011;9031;50.974;11.330;2023-11-19T11:40:16;9.33;;;1.43;;
17814;SDS011;9031;50.974;11.330;2023-11-19T11:42:43;10.33;;;2.07;;
17814;SDS011;9031;50.974;11.330;2023-11-19T11:45:10;6.80;;;1.30;;
17814;SDS011;9031;50.974;11.330;2023-11-19T11:50:10;7.10;;;1.50;;
17814;SDS011;9031;50.974;11.330;2023-11-19T11:55:33;4.83;;;1.30;;
17814;SDS011;9031;50.974;11.330;2023-11-19T11:58:19;8.13;;;1.30;;
17814;SDS011;9031;50.974;11.330;2023-11-19T12:00:56;5.80;;;1.30;;
17814;SDS011;9031;50.974;11.330;2023-11-19T12:03:23;6.50;;;1.60;;
17814;SDS011;9031;50.974;11.330;2023-11-19T12:05:48;9.37;;;1.60;;
17814;SDS011;9031;50.974;11.330;2023-11-19T12:08:15;6.10;;;1.43;;
17814;SDS011;9031;50.974;11.330;2023-11-19T12:13:18;6.50;;;1.33;;
17814;SDS011;9031;50.974;11.330;2023-11-19T12:18:23;4.57;;;1.40;;
17814;SDS011;9031;50.974;11.330;2023-11-19T12:20:49;6.87;;;1.43;;
17814;SDS011;9031;50.974;11.330;2023-11-19T12:23:15;4.23;;;1.33;;
17814;SDS011;9031;50.974;11.330;2023-11-19T12:25:40;4.87;;;1.53;;
17814;SDS011;9031;50.974;11.330;2023-11-19T12:28:11;5.63;;;1.50;;
17814;SDS011;9031;50.974;11.330;2023-11-19T12:30:38;8.67;;;1.73;;
17814;SDS011;9031;50.974;11.330;2023-11-19T12:33:07;6.50;;;1.50;;
17814;SDS011;9031;50.974;11.330;2023-11-19T12:35:38;8.47;;;1.67;;
17814;SDS011;9031;50.974;11.330;2023-11-19T12:38:19;4.83;;;1.00;;
17814;SDS011;9031;50.974;11.330;2023-11-19T12:40:45;5.00;;;1.00;;
17814;SDS011;9031;50.974;11.330;2023-11-19T12:43:13;5.77;;;1.53;;
17814;SDS011;9031;50.974;11.330;2023-11-19T12:45:47;5.83;;;1.57;;
17814;SDS011;9031;50.974;11.330;2023-11-19T12:48:13;6.97;;;1.37;;
17814;SDS011;9031;50.974;11.330;2023-11-19T12:50:54;5.37;;;1.37;;
17814;SDS011;9031;50.974;11.330;2023-11-19T12:53:25;6.73;;;1.53;;
17814;SDS011;9031;50.974;11.330;2023-11-19T12:55:51;8.53;;;1.50;;
17814;SDS011;9031;50.974;11.330;2023-11-19T13:01:08;5.73;;;1.27;;
17814;SDS011;9031;50.974;11.330;2023-11-19T13:03:38;9.93;;;1.47;;
17814;SDS011;9031;50.974;11.330;2023-11-19T13:08:39;6.67;;;1.50;;
17814;SDS011;9031;50.974;11.330;2023-11-19T13:11:05;8.80;;;1.73;;
17814;SDS011;9031;50.974;11.330;2023-11-19T13:13:33;6.77;;;1.30;;
17814;SDS011;9031;50.974;11.330;2023-11-19T13:16:17;6.17;;;1.83;;
17814;SDS011;9031;50.974;11.330;2023-11-19T13:18:42;6.30;;;1.30;;
17814;SDS011;9031;50.974;11.330;2023-11-19T13:21:08;10.30;;;1.43;;
17814;SDS011;9031;50.974;11.330;2023-11-19T13:23:33;7.40;;;1.40;;
17814;SDS011;9031;50.974;11.330;2023-11-19T13:25:59;7.27;;;1.50;;
17814;SDS011;9031;50.974;11.330;2023-11-19T13:28:24;10.43;;;2.50;;
17814;SDS011;9031;50.974;11.330;2023-11-19T13:30:51;6.87;;;1.57;;
17814;SDS011;9031;50.974;11.330;2023-11-19T13:33:18;5.20;;;1.13;;
17814;SDS011;9031;50.974;11.330;2023-11-19T13:35:43;4.90;;;1.60;;
17814;SDS011;9031;50.974;11.330;2023-11-19T13:38:09;7.23;;;2.00;;
17814;SDS011;9031;50.974;11.330;2023-11-19T13:40:35;4.63;;;1.43;;
17814;SDS011;9031;50.974;11.330;2023-11-19T13:43:00;8.27;;;2.53;;
17814;SDS011;9031;50.974;11.330;2023-11-19T13:45:26;9.87;;;3.40;;
17814;SDS011;9031;50.974;11.330;2023-11-19T13:47:51;7.03;;;1.60;;
17814;SDS011;9031;50.974;11.330;2023-11-19T13:50:17;6.30;;;1.40;;
17814;SDS011;9031;50.974;11.330;2023-11-19T13:52:44;8.97;;;2.33;;
17814;SDS011;9031;50.974;11.330;2023-11-19T13:55:11;6.97;;;1.90;;
17814;SDS011;9031;50.974;11.330;2023-11-19T13:57:37;8.30;;;1.60;;
17814;SDS011;9031;50.974;11.330;2023-11-19T14:00:04;10.17;;;2.17;;
17814;SDS011;9031;50.974;11.330;2023-11-19T14:02:35;7.77;;;1.47;;
17814;SDS011;9031;50.974;11.330;2023-11-19T14:05:01;6.73;;;1.80;;
17814;SDS011;9031;50.974;11.330;2023-11-19T14:07:26;9.07;;;1.63;;
17814;SDS011;9031;50.974;11.330;2023-11-19T14:09:52;10.20;;;4.23;;
17814;SDS011;9031;50.974;11.330;2023-11-19T14:12:19;7.47;;;2.07;;
17814;SDS011;9031;50.974;11.330;2023-11-19T14:14:45;7.23;;;1.33;;
17814;SDS011;9031;50.974;11.330;2023-11-19T14:17:10;11.83;;;1.90;;
17814;SDS011;9031;50.974;11.330;2023-11-19T14:19:36;6.17;;;1.70;;
17814;SDS011;9031;50.974;11.330;2023-11-19T14:22:03;12.00;;;2.10;;
17814;SDS011;9031;50.974;11.330;2023-11-19T14:24:28;11.00;;;1.90;;
17814;SDS011;9031;50.974;11.330;2023-11-19T14:26:54;6.30;;;1.50;;
17814;SDS011;9031;50.974;11.330;2023-11-19T14:29:23;7.73;;;1.47;;
17814;SDS011;9031;50.974;11.330;2023-11-19T14:31:48;6.97;;;1.43;;
17814;SDS011;9031;50.974;11.330;2023-11-19T14:34:14;10.00;;;2.20;;
17814;SDS011;9031;50.974;11.330;2023-11-19T14:36:39;6.23;;;2.00;;
17814;SDS011;9031;50.974;11.330;2023-11-19T14:39:05;13.67;;;2.13;;
17814;SDS011;9031;50.974;11.330;2023-11-19T14:41:32;9.03;;;2.13;;
17814;SDS011;9031;50.974;11.330;2023-11-19T14:43:57;13.23;;;2.23;;
17814;SDS011;9031;50.974;11.330;2023-11-19T14:46:23;12.07;;;1.93;;
17814;SDS011;9031;50.974;11.330;2023-11-19T14:48:48;10.23;;;1.70;;
17814;SDS011;9031;50.974;11.330;2023-11-19T14:51:14;9.30;;;2.03;;
17814;SDS011;9031;50.974;11.330;2023-11-19T14:53:39;7.27;;;1.70;;
17814;SDS011;9031;50.974;11.330;2023-11-19T14:56:05;7.70;;;2.00;;
17814;SDS011;9031;50.974;11.330;2023-11-19T14:58:35;9.13;;;1.67;;
17814;SDS011;9031;50.974;11.330;2023-11-19T15:01:00;7.97;;;1.60;;
17814;SDS011;9031;50.974;11.330;2023-11-19T15:03:29;7.70;;;1.60;;
17814;SDS011;9031;50.974;11.330;2023-11-19T15:05:55;9.23;;;2.03;;
17814;SDS011;9031;50.974;11.330;2023-11-19T15:08:21;6.53;;;1.40;;
17814;SDS011;9031;50.974;11.330;2023-11-19T15:10:47;10.27;;;2.03;;